sensor_id;sensor_type;location;lat;lon;timestamp;pressure;altitude;pressure_sealevel;temperature;humidity
6853;BME280;3465;42.144;24.722;2023-03-25T00:01:13;145518.72;;;10.41;92.06
6853;BME280;3465;42.144;24.722;2023-03-25T00:03:41;145487.44;;;10.28;93.46
6853;BME280;3465;42.144;24.722;2023-03-25T00:06:08;145481.19;;;10.26;93.86
6853;BME280;3465;42.144;24.722;2023-03-25T00:08:34;145473.69;;;10.23;95.00
6853;BME280;3465;42.144;24.722;2023-03-25T00:11:01;145476.16;;;10.24;95.44
6853;BME280;3465;42.144;24.722;2023-03-25T00:13:29;145461.16;;;10.18;95.73
6853;BME280;3465;42.144;24.722;2023-03-25T00:15:56;145432.31;;;10.06;97.32
6853;BME280;3465;42.144;24.722;2023-03-25T00:18:24;145466.19;;;10.20;97.64
6853;BME280;3465;42.144;24.722;2023-03-25T00:20:51;145472.41;;;10.22;97.39
6853;BME280;3465;42.144;24.722;2023-03-25T00:23:18;145468.66;;;10.21;98.08
6853;BME280;3465;42.144;24.722;2023-03-25T00:25:44;145461.16;;;10.18;98.36
6853;BME280;3465;42.144;24.722;2023-03-25T00:28:11;145431.03;;;10.05;98.40
6853;BME280;3465;42.144;24.722;2023-03-25T00:30:37;145438.59;;;10.08;100.00
6853;BME280;3465;42.144;24.722;2023-03-25T00:33:02;145436.09;;;10.07;100.00
6853;BME280;3465;42.144;24.722;2023-03-25T00:35:28;145413.56;;;9.98;100.00
6853;BME280;3465;42.144;24.722;2023-03-25T00:37:55;145446.16;;;10.12;99.84
6853;BME280;3465;42.144;24.722;2023-03-25T00:40:29;145438.59;;;10.08;100.00
6853;BME280;3465;42.144;24.722;2023-03-25T00:42:55;145442.34;;;10.10;100.00
6853;BME280;3465;42.144;24.722;2023-03-25T00:45:20;145406.03;;;9.95;100.00
6853;BME280;3465;42.144;24.722;2023-03-25T00:47:46;145382.22;;;9.86;100.00
6853;BME280;3465;42.144;24.722;2023-03-25T00:50:12;145358.44;;;9.76;100.00
6853;BME280;3465;42.144;24.722;2023-03-25T00:52:38;145330.91;;;9.65;100.00
6853;BME280;3465;42.144;24.722;2023-03-25T00:55:04;145339.69;;;9.69;100.00
6853;BME280;3465;42.144;24.722;2023-03-25T00:57:30;145334.66;;;9.67;100.00
6853;BME280;3465;42.144;24.722;2023-03-25T00:59:56;145327.16;;;9.64;100.00
6853;BME280;3465;42.144;24.722;2023-03-25T01:02:23;145325.94;;;9.63;100.00
6853;BME280;3465;42.144;24.722;2023-03-25T01:04:48;145348.47;;;9.72;100.00
6853;BME280;3465;42.144;24.722;2023-03-25T01:07:15;145322.16;;;9.62;100.00
6853;BME280;3465;42.144;24.722;2023-03-25T01:09:41;145310.91;;;9.57;100.00
6853;BME280;3465;42.144;24.722;2023-03-25T01:12:09;145230.84;;;9.25;100.00
6853;BME280;3465;42.144;24.722;2023-03-25T01:14:35;145294.63;;;9.51;100.00
6853;BME280;3465;42.144;24.722;2023-03-25T01:17:01;145274.63;;;9.43;100.00
6853;BME280;3465;42.144;24.722;2023-03-25T01:19:29;145282.13;;;9.46;100.00
6853;BME280;3465;42.144;24.722;2023-03-25T01:21:55;145292.16;;;9.50;100.00
6853;BME280;3465;42.144;24.722;2023-03-25T01:24:20;145283.38;;;9.46;100.00
6853;BME280;3465;42.144;24.722;2023-03-25T01:26:45;145270.88;;;9.41;100.00
6853;BME280;3465;42.144;24.722;2023-03-25T01:29:13;145259.63;;;9.37;100.00
6853;BME280;3465;42.144;24.722;2023-03-25T01:31:39;145238.34;;;9.28;100.00
6853;BME280;3465;42.144;24.722;2023-03-25T01:34:05;145223.34;;;9.22;100.00
6853;BME280;3465;42.144;24.722;2023-03-25T01:36:31;145194.56;;;9.11;100.00
6853;BME280;3465;42.144;24.722;2023-03-25T01:38:58;145213.34;;;9.18;100.00
6853;BME280;3465;42.144;24.722;2023-03-25T01:41:25;145218.31;;;9.20;100.00
6853;BME280;3465;42.144;24.722;2023-03-25T01:44:06;145228.34;;;9.24;100.00
6853;BME280;3465;42.144;24.722;2023-03-25T01:46:33;145225.88;;;9.23;100.00
6853;BME280;3465;42.144;24.722;2023-03-25T01:49:01;145170.81;;;9.01;100.00
6853;BME280;3465;42.144;24.722;2023-03-25T01:51:34;145198.31;;;9.12;100.00
6853;BME280;3465;42.144;24.722;2023-03-25T01:54:01;145193.34;;;9.10;100.00
6853;BME280;3465;42.144;24.722;2023-03-25T01:56:30;145168.31;;;9.00;100.00
6853;BME280;3465;42.144;24.722;2023-03-25T01:59:00;145144.56;;;8.91;100.00
6853;BME280;3465;42.144;24.722;2023-03-25T02:01:27;145120.81;;;8.81;100.00
6853;BME280;3465;42.144;24.722;2023-03-25T02:03:54;145120.81;;;8.81;100.00
6853;BME280;3465;42.144;24.722;2023-03-25T02:06:31;145099.53;;;8.73;100.00
6853;BME280;3465;42.144;24.722;2023-03-25T02:08:59;145108.31;;;8.76;100.00
6853;BME280;3465;42.144;24.722;2023-03-25T02:11:26;145100.81;;;8.73;100.00
6853;BME280;3465;42.144;24.722;2023-03-25T02:13:55;145053.31;;;8.54;100.00
6853;BME280;3465;42.144;24.722;2023-03-25T02:36:43;145043.28;;;8.50;100.00
6853;BME280;3465;42.144;24.722;2023-03-25T02:39:37;145032.03;;;8.45;100.00
6853;BME280;3465;42.144;24.722;2023-03-25T02:42:37;145010.78;;;8.37;100.00
6853;BME280;3465;42.144;24.722;2023-03-25T02:45:10;145023.28;;;8.42;100.00
6853;BME280;3465;42.144;24.722;2023-03-25T02:47:43;145013.31;;;8.38;100.00
6853;BME280;3465;42.144;24.722;2023-03-25T02:50:13;145018.28;;;8.40;100.00
6853;BME280;3465;42.144;24.722;2023-03-25T02:52:50;144995.78;;;8.31;100.00
6853;BME280;3465;42.144;24.722;2023-03-25T02:55:19;144964.50;;;8.18;100.00
6853;BME280;3465;42.144;24.722;2023-03-25T02:57:49;144990.78;;;8.29;100.00
6853;BME280;3465;42.144;24.722;2023-03-25T03:00:19;144993.31;;;8.30;100.00
6853;BME280;3465;42.144;24.722;2023-03-25T03:02:55;144982.03;;;8.25;100.00
6853;BME280;3465;42.144;24.722;2023-03-25T03:11:12;144965.78;;;8.19;100.00
6853;BME280;3465;42.144;24.722;2023-03-25T03:24:32;144909.56;;;7.96;100.00
6853;BME280;3465;42.144;24.722;2023-03-25T03:29:54;144905.81;;;7.95;100.00
6853;BME280;3465;42.144;24.722;2023-03-25T03:32:27;144903.28;;;7.94;100.00
6853;BME280;3465;42.144;24.722;2023-03-25T03:35:04;144868.31;;;7.80;100.00
6853;BME280;3465;42.144;24.722;2023-03-25T03:37:35;144883.28;;;7.86;100.00
6853;BME280;3465;42.144;24.722;2023-03-25T03:40:08;144843.31;;;7.70;100.00
6853;BME280;3465;42.144;24.722;2023-03-25T03:42:40;144855.81;;;7.75;100.00
6853;BME280;3465;42.144;24.722;2023-03-25T03:45:12;144850.78;;;7.73;100.00
6853;BME280;3465;42.144;24.722;2023-03-25T03:47:44;144815.84;;;7.59;100.00
6853;BME280;3465;42.144;24.722;2023-03-25T03:50:22;144833.34;;;7.66;100.00
6853;BME280;3465;42.144;24.722;2023-03-25T03:52:55;144844.56;;;7.70;100.00
6853;BME280;3465;42.144;24.722;2023-03-25T03:55:27;144828.34;;;7.64;100.00
6853;BME280;3465;42.144;24.722;2023-03-25T03:58:08;144822.06;;;7.61;100.00
6853;BME280;3465;42.144;24.722;2023-03-25T04:00:51;144833.34;;;7.66;100.00
6853;BME280;3465;42.144;24.722;2023-03-25T04:03:26;144834.56;;;7.66;100.00
6853;BME280;3465;42.144;24.722;2023-03-25T04:06:02;144828.34;;;7.64;100.00
6853;BME280;3465;42.144;24.722;2023-03-25T04:08:36;144799.59;;;7.52;100.00
6853;BME280;3465;42.144;24.722;2023-03-25T04:11:10;144798.34;;;7.52;100.00
6853;BME280;3465;42.144;24.722;2023-03-25T04:13:39;144822.06;;;7.61;100.00
6853;BME280;3465;42.144;24.722;2023-03-25T04:16:07;144820.84;;;7.61;100.00
6853;BME280;3465;42.144;24.722;2023-03-25T04:18:33;144809.63;;;7.56;100.00
6853;BME280;3465;42.144;24.722;2023-03-25T04:20:59;144803.34;;;7.54;100.00
6853;BME280;3465;42.144;24.722;2023-03-25T04:23:26;144800.88;;;7.53;100.00
6853;BME280;3465;42.144;24.722;2023-03-25T04:25:54;144792.13;;;7.49;100.00
6853;BME280;3465;42.144;24.722;2023-03-25T04:28:20;144797.13;;;7.51;100.00
6853;BME280;3465;42.144;24.722;2023-03-25T04:30:46;144762.13;;;7.37;100.00
6853;BME280;3465;42.144;24.722;2023-03-25T04:33:12;144798.34;;;7.52;100.00
6853;BME280;3465;42.144;24.722;2023-03-25T04:35:39;144799.59;;;7.52;100.00
6853;BME280;3465;42.144;24.722;2023-03-25T04:38:05;144777.13;;;7.43;100.00
6853;BME280;3465;42.144;24.722;2023-03-25T04:40:31;144787.09;;;7.47;100.00
6853;BME280;3465;42.144;24.722;2023-03-25T04:42:57;144792.13;;;7.49;100.00
6853;BME280;3465;42.144;24.722;2023-03-25T04:45:23;144807.09;;;7.55;100.00
6853;BME280;3465;42.144;24.722;2023-03-25T04:47:50;144813.34;;;7.58;100.00
6853;BME280;3465;42.144;24.722;2023-03-25T04:50:23;144805.88;;;7.55;100.00
6853;BME280;3465;42.144;24.722;2023-03-25T04:52:49;144799.59;;;7.52;100.00
6853;BME280;3465;42.144;24.722;2023-03-25T04:55:15;144808.34;;;7.56;100.00
6853;BME280;3465;42.144;24.722;2023-03-25T04:57:44;144844.56;;;7.70;100.00
6853;BME280;3465;42.144;24.722;2023-03-25T05:00:11;144942.00;;;8.09;100.00
6853;BME280;3465;42.144;24.722;2023-03-25T05:03:01;145124.56;;;8.83;100.00
6853;BME280;3465;42.144;24.722;2023-03-25T05:05:26;145466.19;;;10.20;100.00
6853;BME280;3465;42.144;24.722;2023-03-25T05:07:53;145766.78;;;11.40;100.00
6853;BME280;3465;42.144;24.722;2023-03-25T05:10:22;146011.31;;;12.38;93.07
6853;BME280;3465;42.144;24.722;2023-03-25T05:12:48;146184.44;;;13.07;85.75
6853;BME280;3465;42.144;24.722;2023-03-25T05:15:14;146367.78;;;13.80;79.82
6853;BME280;3465;42.144;24.722;2023-03-25T05:17:41;146543.69;;;14.51;75.34
6853;BME280;3465;42.144;24.722;2023-03-25T05:20:09;146737.25;;;15.28;70.68
6853;BME280;3465;42.144;24.722;2023-03-25T05:22:36;146871.91;;;15.82;66.81
6853;BME280;3465;42.144;24.722;2023-03-25T05:25:05;146973.78;;;16.22;62.97
6853;BME280;3465;42.144;24.722;2023-03-25T05:27:32;147083.31;;;16.66;60.85
6853;BME280;3465;42.144;24.722;2023-03-25T05:29:58;147197.91;;;17.11;58.06
6853;BME280;3465;42.144;24.722;2023-03-25T05:32:25;147235.66;;;17.27;57.21
6853;BME280;3465;42.144;24.722;2023-03-25T05:34:54;147297.47;;;17.51;56.17
6853;BME280;3465;42.144;24.722;2023-03-25T05:37:20;147373.03;;;17.81;54.38
6853;BME280;3465;42.144;24.722;2023-03-25T05:39:46;147449.91;;;18.12;53.46
6853;BME280;3465;42.144;24.722;2023-03-25T05:42:11;147499.06;;;18.31;52.68
6853;BME280;3465;42.144;24.722;2023-03-25T05:44:37;147628.97;;;18.83;51.45
6853;BME280;3465;42.144;24.722;2023-03-25T05:47:03;147742.56;;;19.28;49.95
6853;BME280;3465;42.144;24.722;2023-03-25T05:49:29;147811.91;;;19.56;48.79
6853;BME280;3465;42.144;24.722;2023-03-25T05:51:54;147882.59;;;19.84;48.16
6853;BME280;3465;42.144;24.722;2023-03-25T05:54:20;147922.97;;;20.00;47.67
6853;BME280;3465;42.144;24.722;2023-03-25T05:56:49;147992.47;;;20.28;46.62
6853;BME280;3465;42.144;24.722;2023-03-25T05:59:14;148097.28;;;20.69;45.65
6853;BME280;3465;42.144;24.722;2023-03-25T06:01:41;148183.22;;;21.03;44.11
6853;BME280;3465;42.144;24.722;2023-03-25T06:04:12;148284.28;;;21.44;43.46
6853;BME280;3465;42.144;24.722;2023-03-25T06:06:38;148429.69;;;22.01;42.50
6853;BME280;3465;42.144;24.722;2023-03-25T06:09:05;148504.25;;;22.31;41.60
6853;BME280;3465;42.144;24.722;2023-03-25T06:11:31;148565.00;;;22.55;40.73
6853;BME280;3465;42.144;24.722;2023-03-25T06:14:05;148599.19;;;22.69;40.17
6853;BME280;3465;42.144;24.722;2023-03-25T06:16:31;148701.59;;;23.09;39.83
6853;BME280;3465;42.144;24.722;2023-03-25T06:18:58;148781.41;;;23.41;38.74
6853;BME280;3465;42.144;24.722;2023-03-25T06:21:29;148868.72;;;23.75;38.38
6853;BME280;3465;42.144;24.722;2023-03-25T06:23:56;148919.38;;;23.95;37.92
6853;BME280;3465;42.144;24.722;2023-03-25T06:26:22;148944.72;;;24.06;37.34
6853;BME280;3465;42.144;24.722;2023-03-25T06:28:55;149046.03;;;24.46;36.44
6853;BME280;3465;42.144;24.722;2023-03-25T06:31:22;149170.25;;;24.95;36.42
6853;BME280;3465;42.144;24.722;2023-03-25T06:33:51;149187.97;;;25.02;35.65
6853;BME280;3465;42.144;24.722;2023-03-25T06:36:18;149128.44;;;24.78;35.72
6853;BME280;3465;42.144;24.722;2023-03-25T06:38:48;149189.25;;;25.02;35.42
6853;BME280;3465;42.144;24.722;2023-03-25T06:41:15;149231.06;;;25.19;35.70
6853;BME280;3465;42.144;24.722;2023-03-25T06:43:44;149213.31;;;25.12;34.77
6853;BME280;3465;42.144;24.722;2023-03-25T06:46:10;149094.22;;;24.65;35.59
6853;BME280;3465;42.144;24.722;2023-03-25T06:48:35;149199.41;;;25.06;35.52
6853;BME280;3465;42.144;24.722;2023-03-25T06:51:01;149200.63;;;25.07;35.16
6853;BME280;3465;42.144;24.722;2023-03-25T06:53:26;149340.13;;;25.62;34.51
6853;BME280;3465;42.144;24.722;2023-03-25T06:55:51;149487.25;;;26.20;34.16
6853;BME280;3465;42.144;24.722;2023-03-25T06:58:17;149673.78;;;26.94;32.79
6853;BME280;3465;42.144;24.722;2023-03-25T07:00:42;149824.84;;;27.54;32.04
6853;BME280;3465;42.144;24.722;2023-03-25T07:03:09;149940.41;;;27.99;31.38
6853;BME280;3465;42.144;24.722;2023-03-25T07:05:34;149889.59;;;27.79;30.35
6853;BME280;3465;42.144;24.722;2023-03-25T07:08:00;149718.19;;;27.12;31.61
6853;BME280;3465;42.144;24.722;2023-03-25T07:10:25;149777.84;;;27.35;31.72
6853;BME280;3465;42.144;24.722;2023-03-25T07:12:51;150021.69;;;28.32;30.33
6853;BME280;3465;42.144;24.722;2023-03-25T07:15:16;150073.78;;;28.52;29.97
6853;BME280;3465;42.144;24.722;2023-03-25T07:17:42;150193.22;;;28.99;29.36
6853;BME280;3465;42.144;24.722;2023-03-25T07:20:08;150164.00;;;28.88;29.07
6853;BME280;3465;42.144;24.722;2023-03-25T07:22:33;150291.16;;;29.38;28.43
6853;BME280;3465;42.144;24.722;2023-03-25T07:24:59;150307.66;;;29.45;28.58
6853;BME280;3465;42.144;24.722;2023-03-25T07:27:25;150292.44;;;29.38;28.77
6853;BME280;3465;42.144;24.722;2023-03-25T07:29:50;150236.47;;;29.16;29.01
6853;BME280;3465;42.144;24.722;2023-03-25T07:32:16;150405.59;;;29.83;27.83
6853;BME280;3465;42.144;24.722;2023-03-25T07:34:42;150147.47;;;28.81;28.97
6853;BME280;3465;42.144;24.722;2023-03-25T07:37:07;150348.34;;;29.61;28.37
6853;BME280;3465;42.144;24.722;2023-03-25T07:39:33;150462.84;;;30.06;28.03
6853;BME280;3465;42.144;24.722;2023-03-25T07:41:58;150429.75;;;29.93;28.41
6853;BME280;3465;42.144;24.722;2023-03-25T07:44:24;150465.34;;;30.07;28.40
6853;BME280;3465;42.144;24.722;2023-03-25T07:46:49;150518.81;;;30.28;27.37
6853;BME280;3465;42.144;24.722;2023-03-25T07:49:15;150595.13;;;30.58;27.27
6853;BME280;3465;42.144;24.722;2023-03-25T07:51:42;150307.66;;;29.45;28.04
6853;BME280;3465;42.144;24.722;2023-03-25T07:54:07;150452.63;;;30.02;27.75
6853;BME280;3465;42.144;24.722;2023-03-25T07:56:33;150343.25;;;29.59;27.44
6853;BME280;3465;42.144;24.722;2023-03-25T07:58:58;150350.88;;;29.62;28.19
6853;BME280;3465;42.144;24.722;2023-03-25T08:01:24;150296.25;;;29.40;28.57
6853;BME280;3465;42.144;24.722;2023-03-25T08:03:49;149987.41;;;28.18;30.03
6853;BME280;3465;42.144;24.722;2023-03-25T08:06:15;150114.44;;;28.68;29.67
6853;BME280;3465;42.144;24.722;2023-03-25T08:08:40;150092.88;;;28.60;29.76
6853;BME280;3465;42.144;24.722;2023-03-25T08:11:06;150075.06;;;28.53;30.04
6853;BME280;3465;42.144;24.722;2023-03-25T08:13:31;150310.19;;;29.46;29.37
6853;BME280;3465;42.144;24.722;2023-03-25T08:15:57;150470.44;;;30.09;28.49
6853;BME280;3465;42.144;24.722;2023-03-25T08:18:22;150564.63;;;30.46;26.85
6853;BME280;3465;42.144;24.722;2023-03-25T08:20:48;150649.91;;;30.80;26.98
6853;BME280;3465;42.144;24.722;2023-03-25T08:23:15;150702.06;;;31.00;26.61
6853;BME280;3465;42.144;24.722;2023-03-25T08:25:45;150844.66;;;31.56;25.94
6853;BME280;3465;42.144;24.722;2023-03-25T08:28:14;150881.56;;;31.71;25.97
6853;BME280;3465;42.144;24.722;2023-03-25T08:30:42;150964.38;;;32.03;25.09
6853;BME280;3465;42.144;24.722;2023-03-25T08:33:09;151135.09;;;32.71;25.13
6853;BME280;3465;42.144;24.722;2023-03-25T08:35:36;151036.97;;;32.32;24.94
6853;BME280;3465;42.144;24.722;2023-03-25T08:38:02;151073.94;;;32.47;24.89
6853;BME280;3465;42.144;24.722;2023-03-25T08:40:32;150959.28;;;32.01;24.46
6853;BME280;3465;42.144;24.722;2023-03-25T08:42:58;150261.91;;;29.26;27.82
6853;BME280;3465;42.144;24.722;2023-03-25T08:45:24;149865.47;;;27.70;29.56
6853;BME280;3465;42.144;24.722;2023-03-25T08:47:49;149765.16;;;27.30;30.85
6853;BME280;3465;42.144;24.722;2023-03-25T08:50:14;149609.06;;;26.68;31.87
6853;BME280;3465;42.144;24.722;2023-03-25T08:52:40;149430.13;;;25.98;32.42
6853;BME280;3465;42.144;24.722;2023-03-25T08:55:06;149716.91;;;27.11;31.37
6853;BME280;3465;42.144;24.722;2023-03-25T08:57:34;149928.97;;;27.95;30.43
6853;BME280;3465;42.144;24.722;2023-03-25T09:00:01;150269.53;;;29.29;28.90
6853;BME280;3465;42.144;24.722;2023-03-25T09:02:29;150425.94;;;29.91;28.41
6853;BME280;3465;42.144;24.722;2023-03-25T09:04:55;150675.31;;;30.90;26.80
6853;BME280;3465;42.144;24.722;2023-03-25T09:07:20;150821.75;;;31.47;26.26
6853;BME280;3465;42.144;24.722;2023-03-25T09:09:47;150816.66;;;31.45;25.92
6853;BME280;3465;42.144;24.722;2023-03-25T09:12:12;150901.94;;;31.79;25.63
6853;BME280;3465;42.144;24.722;2023-03-25T09:14:38;150997.44;;;32.17;24.73
6853;BME280;3465;42.144;24.722;2023-03-25T09:17:03;150865.00;;;31.64;25.45
6853;BME280;3465;42.144;24.722;2023-03-25T09:19:32;150792.47;;;31.36;25.80
6853;BME280;3465;42.144;24.722;2023-03-25T09:21:57;150376.34;;;29.72;27.02
6853;BME280;3465;42.144;24.722;2023-03-25T09:24:22;150205.94;;;29.04;27.85
6853;BME280;3465;42.144;24.722;2023-03-25T09:26:49;150232.66;;;29.15;27.98
6853;BME280;3465;42.144;24.722;2023-03-25T09:29:14;150517.53;;;30.27;27.80
6853;BME280;3465;42.144;24.722;2023-03-25T09:31:39;150824.28;;;31.48;26.18
6853;BME280;3465;42.144;24.722;2023-03-25T09:34:05;150693.13;;;30.97;25.91
6853;BME280;3465;42.144;24.722;2023-03-25T09:36:31;150455.22;;;30.03;26.51
6853;BME280;3465;42.144;24.722;2023-03-25T09:38:57;150118.25;;;28.70;28.17
6853;BME280;3465;42.144;24.722;2023-03-25T09:47:30;150682.97;;;30.93;25.80
6853;BME280;3465;42.144;24.722;2023-03-25T09:50:00;150781.03;;;31.31;25.58
6853;BME280;3465;42.144;24.722;2023-03-25T09:52:51;150917.25;;;31.85;24.97
6853;BME280;3465;42.144;24.722;2023-03-25T09:55:22;151205.16;;;32.98;24.24
6853;BME280;3465;42.144;24.722;2023-03-25T09:57:52;151229.41;;;33.08;24.19
6853;BME280;3465;42.144;24.722;2023-03-25T10:00:22;151061.19;;;32.42;23.71
6853;BME280;3465;42.144;24.722;2023-03-25T10:02:55;150513.72;;;30.26;26.13
6853;BME280;3465;42.144;24.722;2023-03-25T10:10:29;150445.00;;;29.99;27.06
6853;BME280;3465;42.144;24.722;2023-03-25T10:13:26;150606.56;;;30.62;26.32
6853;BME280;3465;42.144;24.722;2023-03-25T10:16:03;150752.94;;;31.20;25.87
6853;BME280;3465;42.144;24.722;2023-03-25T10:18:44;150569.66;;;30.48;26.05
6853;BME280;3465;42.144;24.722;2023-03-25T10:21:27;150108.13;;;28.66;28.36
6853;BME280;3465;42.144;24.722;2023-03-25T10:24:16;149888.31;;;27.79;29.64
6853;BME280;3465;42.144;24.722;2023-03-25T10:27:32;149962.00;;;28.08;29.33
6853;BME280;3465;42.144;24.722;2023-03-25T10:29:36;149883.22;;;27.77;29.37
6853;BME280;3465;42.144;24.722;2023-03-25T10:32:19;149629.38;;;26.77;30.59
6853;BME280;3465;42.144;24.722;2023-03-25T10:34:50;149846.41;;;27.62;30.33
6853;BME280;3465;42.144;24.722;2023-03-25T10:37:32;150066.19;;;28.49;29.35
6853;BME280;3465;42.144;24.722;2023-03-25T10:43:11;150311.47;;;29.46;28.48
6853;BME280;3465;42.144;24.722;2023-03-25T10:45:40;150466.63;;;30.07;28.04
6853;BME280;3465;42.144;24.722;2023-03-25T10:48:13;150428.47;;;29.92;27.70
6853;BME280;3465;42.144;24.722;2023-03-25T10:50:41;150604.03;;;30.61;27.53
6853;BME280;3465;42.144;24.722;2023-03-25T10:53:19;150887.91;;;31.73;25.56
6853;BME280;3465;42.144;24.722;2023-03-25T10:55:47;150900.66;;;31.78;25.36
6853;BME280;3465;42.144;24.722;2023-03-25T10:58:17;151056.09;;;32.40;25.12
6853;BME280;3465;42.144;24.722;2023-03-25T11:00:43;151174.56;;;32.86;24.29
6853;BME280;3465;42.144;24.722;2023-03-25T11:03:21;151228.13;;;33.07;24.26
6853;BME280;3465;42.144;24.722;2023-03-25T11:05:50;151152.88;;;32.78;24.21
6853;BME280;3465;42.144;24.722;2023-03-25T11:08:18;150928.69;;;31.89;25.02
6853;BME280;3465;42.144;24.722;2023-03-25T11:10:49;150968.19;;;32.05;24.97
6853;BME280;3465;42.144;24.722;2023-03-25T11:13:23;150609.13;;;30.63;25.94
6853;BME280;3465;42.144;24.722;2023-03-25T11:15:51;150661.34;;;30.84;25.75
6853;BME280;3465;42.144;24.722;2023-03-25T11:18:36;150717.31;;;31.06;25.55
6853;BME280;3465;42.144;24.722;2023-03-25T11:21:06;150581.16;;;30.52;26.08
6853;BME280;3465;42.144;24.722;2023-03-25T11:23:34;150539.16;;;30.36;26.53
6853;BME280;3465;42.144;24.722;2023-03-25T11:26:28;150275.91;;;29.32;27.70
6853;BME280;3465;42.144;24.722;2023-03-25T11:31:33;150494.63;;;30.18;27.45
6853;BME280;3465;42.144;24.722;2023-03-25T11:34:20;150544.28;;;30.38;26.68
6853;BME280;3465;42.144;24.722;2023-03-25T11:36:54;150684.22;;;30.93;26.33
6853;BME280;3465;42.144;24.722;2023-03-25T11:39:40;150852.28;;;31.59;25.52
6853;BME280;3465;42.144;24.722;2023-03-25T11:44:51;150950.34;;;31.98;25.19
6853;BME280;3465;42.144;24.722;2023-03-25T11:47:44;150798.81;;;31.38;25.53
6853;BME280;3465;42.144;24.722;2023-03-25T11:50:28;150699.53;;;30.99;25.54
6853;BME280;3465;42.144;24.722;2023-03-25T11:52:59;150844.66;;;31.56;25.70
6853;BME280;3465;42.144;24.722;2023-03-25T11:55:49;150958.00;;;32.01;25.21
6853;BME280;3465;42.144;24.722;2023-03-25T11:58:27;151090.50;;;32.53;24.96
6853;BME280;3465;42.144;24.722;2023-03-25T12:01:03;150961.81;;;32.02;24.86
6853;BME280;3465;42.144;24.722;2023-03-25T12:03:31;150862.47;;;31.63;25.80
6853;BME280;3465;42.144;24.722;2023-03-25T12:09:02;150537.88;;;30.35;27.20
6853;BME280;3465;42.144;24.722;2023-03-25T12:11:40;150557.00;;;30.43;27.10
6853;BME280;3465;42.144;24.722;2023-03-25T12:14:29;150674.06;;;30.89;26.83
6853;BME280;3465;42.144;24.722;2023-03-25T12:20:40;150148.78;;;28.82;28.33
6853;BME280;3465;42.144;24.722;2023-03-25T12:23:01;150381.47;;;29.74;27.69
6853;BME280;3465;42.144;24.722;2023-03-25T12:25:30;150049.63;;;28.43;28.41
6853;BME280;3465;42.144;24.722;2023-03-25T12:34:11;150071.28;;;28.51;28.52
6853;BME280;3465;42.144;24.722;2023-03-25T12:37:07;150212.34;;;29.07;29.18
6853;BME280;3465;42.144;24.722;2023-03-25T12:42:46;150129.72;;;28.74;29.01
6853;BME280;3465;42.144;24.722;2023-03-25T12:47:54;149840.06;;;27.60;30.14
6853;BME280;3465;42.144;24.722;2023-03-25T12:50:23;149786.75;;;27.39;30.57
6853;BME280;3465;42.144;24.722;2023-03-25T12:56:15;149879.41;;;27.75;30.09
6853;BME280;3465;42.144;24.722;2023-03-25T13:07:12;149649.66;;;26.85;31.96
6853;BME280;3465;42.144;24.722;2023-03-25T13:12:37;149617.91;;;26.72;32.25
6853;BME280;3465;42.144;24.722;2023-03-25T13:15:26;149578.53;;;26.56;32.96
6853;BME280;3465;42.144;24.722;2023-03-25T13:17:57;149426.34;;;25.96;34.20
6853;BME280;3465;42.144;24.722;2023-03-25T13:20:30;149496.09;;;26.24;33.95
6853;BME280;3465;42.144;24.722;2023-03-25T13:22:58;149469.47;;;26.13;33.81
6853;BME280;3465;42.144;24.722;2023-03-25T13:25:50;149461.88;;;26.10;34.13
6853;BME280;3465;42.144;24.722;2023-03-25T13:28:26;149422.53;;;25.95;34.18
6853;BME280;3465;42.144;24.722;2023-03-25T13:30:54;149389.56;;;25.82;34.28
6853;BME280;3465;42.144;24.722;2023-03-25T13:33:27;149342.63;;;25.63;34.39
6853;BME280;3465;42.144;24.722;2023-03-25T13:35:59;149373.09;;;25.75;33.97
6853;BME280;3465;42.144;24.722;2023-03-25T13:39:00;149286.88;;;25.41;34.10
6853;BME280;3465;42.144;24.722;2023-03-25T13:41:37;149360.41;;;25.70;33.82
6853;BME280;3465;42.144;24.722;2023-03-25T13:44:18;149432.66;;;25.99;34.37
6853;BME280;3465;42.144;24.722;2023-03-25T13:46:53;149431.38;;;25.98;33.50
6853;BME280;3465;42.144;24.722;2023-03-25T13:49:25;149525.25;;;26.35;33.74
6853;BME280;3465;42.144;24.722;2023-03-25T13:51:53;149492.28;;;26.22;33.28
6853;BME280;3465;42.144;24.722;2023-03-25T13:54:42;149427.56;;;25.97;34.13
6853;BME280;3465;42.144;24.722;2023-03-25T14:13:15;149130.94;;;24.79;33.82
6853;BME280;3465;42.144;24.722;2023-03-25T14:15:51;149255.16;;;25.28;33.82
6853;BME280;3465;42.144;24.722;2023-03-25T14:18:20;149203.19;;;25.08;34.24
6853;BME280;3465;42.144;24.722;2023-03-25T14:20:47;149162.66;;;24.92;34.03
6853;BME280;3465;42.144;24.722;2023-03-25T14:23:18;149194.31;;;25.04;34.28
6853;BME280;3465;42.144;24.722;2023-03-25T14:25:51;149162.66;;;24.92;35.02
6853;BME280;3465;42.144;24.722;2023-03-25T14:28:30;149078.97;;;24.59;35.85
6853;BME280;3465;42.144;24.722;2023-03-25T14:31:23;149123.34;;;24.76;35.49
6853;BME280;3465;42.144;24.722;2023-03-25T14:39:08;149056.19;;;24.50;35.90
6853;BME280;3465;42.144;24.722;2023-03-25T14:44:46;149067.56;;;24.54;35.84
6853;BME280;3465;42.144;24.722;2023-03-25T14:49:53;149059.97;;;24.51;35.81
6853;BME280;3465;42.144;24.722;2023-03-25T14:52:39;149041.00;;;24.44;35.64
6853;BME280;3465;42.144;24.722;2023-03-25T14:55:13;149062.50;;;24.52;35.74
6853;BME280;3465;42.144;24.722;2023-03-25T14:57:41;149125.91;;;24.77;35.64
6853;BME280;3465;42.144;24.722;2023-03-25T15:00:09;149128.44;;;24.78;35.73
6853;BME280;3465;42.144;24.722;2023-03-25T15:02:40;149152.50;;;24.88;35.34
6853;BME280;3465;42.144;24.722;2023-03-25T15:05:23;149182.94;;;25.00;35.17
6853;BME280;3465;42.144;24.722;2023-03-25T15:07:53;149231.06;;;25.19;35.59
6853;BME280;3465;42.144;24.722;2023-03-25T15:10:35;149267.81;;;25.33;34.87
6853;BME280;3465;42.144;24.722;2023-03-25T15:15:52;149308.44;;;25.50;34.39
6853;BME280;3465;42.144;24.722;2023-03-25T15:51:11;149166.44;;;24.93;37.71